Time;durP1;ratioP1;P1;durP2;ratioP2;P2;SDS_P1;SDS_P2;PMS_P1;PMS_P2;Temp;Humidity;BMP_temperature;BMP_pressure;BME280_temperature;BME280_humidity;BME280_pressure;Samples;Min_cycle;Max_cycle;Signal;HPM_P1;HPM_P2
2023/07/27 00:03:59;;;;;;;;;;;23.40;57.40;;;;;;8499338;27;19911;-53
2023/07/27 00:08:00;;;;;;;;;;;23.40;57.40;;;;;;8515510;27;19919;-53
2023/07/27 00:12:00;;;;;;;;;;;23.40;57.40;;;;;;8498980;27;20291;-54
2023/07/27 00:16:01;;;;;;;;;;;23.40;57.50;;;;;;8499131;27;19965;-53
2023/07/27 00:20:02;;;;;;;;;;;23.40;57.50;;;;;;8480331;27;20364;-54
2023/07/27 00:24:02;;;;;;;;;;;23.40;57.50;;;;;;8498613;27;19911;-53
2023/07/27 00:28:03;;;;;;;;;;;23.40;57.50;;;;;;8498893;27;20022;-54
2023/07/27 00:32:04;;;;;;;;;;;23.40;57.50;;;;;;8498640;27;19911;-53
2023/07/27 00:36:04;;;;;;;;;;;23.40;57.50;;;;;;8498135;27;19916;-54
2023/07/27 00:40:05;;;;;;;;;;;23.40;57.60;;;;;;8498377;27;20425;-53
2023/07/27 00:44:05;;;;;;;;;;;23.40;57.60;;;;;;8498049;27;19998;-54
2023/07/27 00:48:08;;;;;;;;;;;23.40;57.60;;;;;;8497923;27;19912;-52
2023/07/27 00:52:09;;;;;;;;;;;23.40;57.60;;;;;;8497172;27;19954;-54
2023/07/27 00:56:10;;;;;;;;;;;23.40;57.60;;;;;;8514036;27;19918;-54
2023/07/27 01:00:10;;;;;;;;;;;23.40;57.60;;;;;;8497463;27;20006;-53
2023/07/27 01:04:11;;;;;;;;;;;23.40;57.70;;;;;;8497339;27;19918;-54
2023/07/27 01:08:12;;;;;;;;;;;23.40;57.60;;;;;;8497776;27;19912;-53
2023/07/27 01:12:16;;;;;;;;;;;23.40;57.70;;;;;;8497002;27;19919;-53
2023/07/27 01:16:30;;;;;;;;;;;23.40;57.60;;;;;;8497311;27;19920;-54
2023/07/27 01:20:33;;;;;;;;;;;23.40;57.70;;;;;;8497219;27;20361;-53
2023/07/27 01:24:53;;;;;;;;;;;23.30;57.60;;;;;;8478575;27;19924;-54
2023/07/27 01:29:07;;;;;;;;;;;23.40;57.70;;;;;;8496838;27;19956;-54
2023/07/27 01:33:12;;;;;;;;;;;23.40;57.70;;;;;;8496567;27;19950;-53
2023/07/27 01:37:15;;;;;;;;;;;23.30;57.70;;;;;;8496400;27;19914;-53
2023/07/27 01:41:16;;;;;;;;;;;23.30;57.70;;;;;;8496253;27;20010;-52
2023/07/27 01:45:17;;;;;;;;;;;23.40;57.80;;;;;;8496221;27;19911;-53
2023/07/27 01:49:18;;;;;;;;;;;23.30;57.70;;;;;;8495958;27;19911;-53
2023/07/27 01:53:19;;;;;;;;;;;23.40;57.80;;;;;;8495800;27;20291;-54
2023/07/27 01:57:20;;;;;;;;;;;23.30;57.80;;;;;;8496161;27;19950;-52
2023/07/27 02:01:20;;;;;;;;;;;23.30;57.80;;;;;;8495674;27;19915;-53
2023/07/27 02:05:21;;;;;;;;;;;23.30;57.80;;;;;;8494836;27;19912;-53
2023/07/27 02:09:22;;;;;;;;;;;23.40;57.80;;;;;;8495346;27;19914;-54
2023/07/27 02:13:41;;;;;;;;;;;23.30;57.80;;;;;;8495959;27;19923;-54
2023/07/27 02:17:45;;;;;;;;;;;23.30;57.80;;;;;;8495445;27;20268;-53
2023/07/27 02:21:46;;;;;;;;;;;23.30;57.80;;;;;;8495044;27;20376;-53
2023/07/27 02:25:47;;;;;;;;;;;23.30;57.80;;;;;;8477105;27;20257;-54
2023/07/27 02:29:48;;;;;;;;;;;23.30;57.80;;;;;;8494939;27;19911;-53
2023/07/27 02:33:48;;;;;;;;;;;23.30;57.80;;;;;;8495121;27;19912;-54
2023/07/27 02:37:49;;;;;;;;;;;23.30;57.80;;;;;;8494709;28;19911;-54
2023/07/27 02:41:49;;;;;;;;;;;23.30;57.80;;;;;;8476640;28;19916;-53
2023/07/27 02:45:50;;;;;;;;;;;23.30;57.80;;;;;;8494417;28;19936;-54
2023/07/27 02:49:50;;;;;;;;;;;23.30;57.90;;;;;;8494623;28;20400;-54
2023/07/27 02:53:51;;;;;;;;;;;23.30;57.90;;;;;;8495632;28;19919;-53
2023/07/27 02:57:51;;;;;;;;;;;23.30;57.90;;;;;;8494670;27;19916;-55
2023/07/27 03:01:52;;;;;;;;;;;23.30;57.90;;;;;;8494705;28;19915;-53
2023/07/27 03:05:59;;;;;;;;;;;23.30;57.90;;;;;;8475861;28;19920;-54
2023/07/27 03:10:00;;;;;;;;;;;23.30;57.90;;;;;;8494322;28;19914;-54
2023/07/27 03:14:00;;;;;;;;;;;23.30;57.90;;;;;;8494256;28;19920;-54
2023/07/27 03:18:01;;;;;;;;;;;23.30;57.90;;;;;;8481606;27;20296;-54
2023/07/27 03:22:01;;;;;;;;;;;23.30;58.00;;;;;;8500549;27;20003;-54
2023/07/27 03:26:09;;;;;;;;;;;23.30;58.00;;;;;;8501054;27;20002;-53
2023/07/27 03:30:09;;;;;;;;;;;23.30;58.00;;;;;;8500425;27;19908;-54
2023/07/27 03:34:10;;;;;;;;;;;23.30;58.00;;;;;;8500208;27;19911;-53
2023/07/27 03:38:10;;;;;;;;;;;23.30;58.00;;;;;;8500376;27;19912;-54
2023/07/27 03:42:11;;;;;;;;;;;23.30;58.00;;;;;;8500095;27;20547;-53
2023/07/27 03:46:12;;;;;;;;;;;23.30;58.00;;;;;;8500398;27;19919;-53
2023/07/27 03:50:12;;;;;;;;;;;23.30;58.00;;;;;;8515759;27;19912;-51
2023/07/27 03:54:13;;;;;;;;;;;23.30;58.00;;;;;;8499825;27;19998;-53
2023/07/27 03:58:13;;;;;;;;;;;23.30;58.00;;;;;;8499712;27;20375;-54
2023/07/27 04:02:14;;;;;;;;;;;23.30;58.00;;;;;;8499456;27;20412;-53
2023/07/27 04:06:14;;;;;;;;;;;23.30;58.00;;;;;;8499291;27;20337;-53
2023/07/27 04:10:15;;;;;;;;;;;23.30;58.00;;;;;;8500121;27;19964;-54
2023/07/27 04:14:16;;;;;;;;;;;23.30;58.10;;;;;;8498972;27;19927;-53
2023/07/27 04:18:16;;;;;;;;;;;23.30;58.10;;;;;;8499681;27;19911;-53
2023/07/27 04:22:17;;;;;;;;;;;23.30;58.10;;;;;;8515388;27;19915;-53
2023/07/27 04:26:17;;;;;;;;;;;23.30;58.10;;;;;;8498376;27;19947;-54
2023/07/27 04:30:18;;;;;;;;;;;23.30;58.10;;;;;;8480170;27;19911;-53
2023/07/27 04:34:19;;;;;;;;;;;23.30;58.10;;;;;;8498595;27;19965;-54
2023/07/27 04:38:19;;;;;;;;;;;23.30;58.10;;;;;;8498844;27;19958;-54
2023/07/27 04:42:20;;;;;;;;;;;23.30;58.10;;;;;;8498199;27;20273;-54
2023/07/27 04:46:20;;;;;;;;;;;23.30;58.00;;;;;;8498723;27;19912;-54
2023/07/27 04:50:21;;;;;;;;;;;23.30;58.00;;;;;;8497743;27;19912;-53
2023/07/27 04:54:21;;;;;;;;;;;23.30;58.00;;;;;;8497900;27;19908;-54
2023/07/27 04:58:22;;;;;;;;;;;23.30;58.00;;;;;;8498059;27;20001;-53
2023/07/27 05:02:22;;;;;;;;;;;23.30;58.00;;;;;;8497706;27;19915;-54
2023/07/27 05:06:23;;;;;;;;;;;23.30;58.00;;;;;;8498308;27;20348;-54
2023/07/27 05:10:24;;;;;;;;;;;23.30;58.00;;;;;;8497004;27;19912;-54
2023/07/27 05:14:24;;;;;;;;;;;23.30;58.10;;;;;;8497162;27;19924;-52
2023/07/27 05:18:25;;;;;;;;;;;23.30;58.10;;;;;;8497131;27;20312;-53
2023/07/27 05:22:25;;;;;;;;;;;23.30;58.10;;;;;;8497188;27;19922;-54
2023/07/27 05:26:26;;;;;;;;;;;23.30;58.10;;;;;;8478658;27;19915;-53
2023/07/27 05:30:26;;;;;;;;;;;23.30;58.10;;;;;;8496768;27;19911;-52
2023/07/27 05:34:27;;;;;;;;;;;23.30;58.10;;;;;;8496415;27;20002;-52
2023/07/27 05:38:27;;;;;;;;;;;23.30;58.10;;;;;;8496818;27;19911;-53
2023/07/27 05:42:28;;;;;;;;;;;23.30;58.10;;;;;;8496985;27;19928;-54
2023/07/27 05:46:28;;;;;;;;;;;23.30;58.10;;;;;;8496536;27;20056;-52
2023/07/27 05:50:29;;;;;;;;;;;23.30;58.10;;;;;;8496234;27;20445;-51
2023/07/27 05:54:29;;;;;;;;;;;23.30;58.10;;;;;;8496242;27;20392;-53
2023/07/27 05:58:30;;;;;;;;;;;23.30;58.10;;;;;;8495873;27;20002;-52
2023/07/27 06:02:30;;;;;;;;;;;23.30;58.20;;;;;;8495574;27;19993;-53
2023/07/27 06:06:31;;;;;;;;;;;23.30;58.20;;;;;;8495507;27;19951;-54
2023/07/27 06:10:32;;;;;;;;;;;23.30;58.20;;;;;;8495312;27;19907;-53
2023/07/27 06:14:32;;;;;;;;;;;23.30;58.20;;;;;;8476841;27;19924;-53
2023/07/27 06:18:33;;;;;;;;;;;23.30;58.20;;;;;;8495348;27;20006;-55
2023/07/27 06:22:33;;;;;;;;;;;23.30;58.10;;;;;;8494905;27;19922;-53
2023/07/27 06:26:34;;;;;;;;;;;23.30;58.10;;;;;;8509796;27;20296;-54
2023/07/27 06:30:38;;;;;;;;;;;23.30;58.20;;;;;;8495120;27;19933;-52
2023/07/27 06:34:39;;;;;;;;;;;23.30;58.20;;;;;;8494949;27;19951;-54
2023/07/27 06:38:39;;;;;;;;;;;23.30;58.20;;;;;;8494878;27;19912;-54
2023/07/27 06:42:40;;;;;;;;;;;23.30;58.20;;;;;;8494962;28;20390;-54
2023/07/27 06:46:40;;;;;;;;;;;23.30;58.20;;;;;;8494606;28;19963;-54
2023/07/27 06:50:41;;;;;;;;;;;23.30;58.20;;;;;;8496748;27;20035;-54
2023/07/27 06:54:41;;;;;;;;;;;23.30;58.20;;;;;;8502049;27;19915;-54
2023/07/27 06:58:42;;;;;;;;;;;23.30;58.30;;;;;;8501683;27;19911;-54
2023/07/27 07:02:42;;;;;;;;;;;23.30;58.30;;;;;;8501393;27;20010;-53
2023/07/27 07:06:45;;;;;;;;;;;23.30;58.30;;;;;;8501090;27;20392;-53
2023/07/27 07:10:45;;;;;;;;;;;23.30;58.30;;;;;;8501280;27;19918;-54
2023/07/27 07:14:46;;;;;;;;;;;23.30;58.20;;;;;;8500928;27;19927;-54
2023/07/27 07:18:47;;;;;;;;;;;23.30;58.30;;;;;;8501071;27;20018;-53
2023/07/27 07:22:47;;;;;;;;;;;23.30;58.30;;;;;;8500653;27;19915;-53
2023/07/27 07:26:48;;;;;;;;;;;23.30;58.30;;;;;;8501300;27;19958;-54
2023/07/27 07:30:48;;;;;;;;;;;23.30;58.30;;;;;;8500520;27;19962;-54
2023/07/27 07:34:50;;;;;;;;;;;23.30;58.30;;;;;;8500561;27;19912;-51
2023/07/27 07:38:51;;;;;;;;;;;23.30;58.30;;;;;;8500456;27;19956;-53
2023/07/27 07:42:52;;;;;;;;;;;23.30;58.30;;;;;;8500281;27;19958;-54
2023/07/27 07:46:52;;;;;;;;;;;23.30;58.30;;;;;;8500214;27;19918;-55
2023/07/27 07:50:53;;;;;;;;;;;23.30;58.30;;;;;;8481575;27;19911;-54
2023/07/27 07:54:53;;;;;;;;;;;23.20;58.30;;;;;;8500318;27;19998;-54
2023/07/27 07:58:54;;;;;;;;;;;23.30;58.30;;;;;;8499712;27;19911;-53
2023/07/27 08:02:54;;;;;;;;;;;23.20;58.30;;;;;;8498036;27;20002;-53
2023/07/27 08:06:55;;;;;;;;;;;23.20;58.30;;;;;;8499237;27;20619;-53
2023/07/27 08:11:04;;;;;;;;;;;23.20;58.30;;;;;;8499433;27;19974;-54
2023/07/27 08:15:05;;;;;;;;;;;23.20;58.30;;;;;;8499448;27;19923;-54
2023/07/27 08:19:06;;;;;;;;;;;23.20;58.30;;;;;;8499027;27;20602;-53
2023/07/27 08:23:07;;;;;;;;;;;23.20;58.40;;;;;;8498838;27;20325;-54
2023/07/27 08:27:08;;;;;;;;;;;23.30;58.40;;;;;;8498835;27;19912;-55
2023/07/27 08:31:08;;;;;;;;;;;23.20;58.40;;;;;;8498606;27;19922;-54
2023/07/27 08:35:09;;;;;;;;;;;23.30;58.40;;;;;;8479861;27;19912;-55
2023/07/27 08:39:09;;;;;;;;;;;23.20;58.40;;;;;;8498600;27;19907;-54
2023/07/27 08:43:10;;;;;;;;;;;23.30;58.40;;;;;;8497842;27;20405;-54
2023/07/27 08:47:11;;;;;;;;;;;23.30;58.50;;;;;;8498488;27;19915;-54
2023/07/27 08:51:12;;;;;;;;;;;23.30;58.40;;;;;;8497563;27;19908;-54
2023/07/27 08:55:12;;;;;;;;;;;23.20;58.40;;;;;;8498356;27;19911;-54
2023/07/27 08:59:13;;;;;;;;;;;23.20;58.40;;;;;;8497858;27;20357;-53
2023/07/27 09:03:13;;;;;;;;;;;23.30;58.50;;;;;;8497596;27;19915;-53
2023/07/27 09:07:14;;;;;;;;;;;23.20;58.50;;;;;;8497413;27;20368;-54
2023/07/27 09:11:19;;;;;;;;;;;23.30;58.60;;;;;;8497548;27;20269;-54
2023/07/27 09:15:19;;;;;;;;;;;23.20;58.50;;;;;;8496985;27;20300;-53
2023/07/27 09:19:20;;;;;;;;;;;23.20;58.50;;;;;;8496925;27;20112;-54
2023/07/27 09:23:21;;;;;;;;;;;23.20;58.50;;;;;;8496904;27;20451;-54
2023/07/27 09:27:21;;;;;;;;;;;23.20;58.50;;;;;;8496873;27;20033;-53
2023/07/27 09:31:22;;;;;;;;;;;23.20;58.50;;;;;;8497002;27;19998;-53
2023/07/27 09:35:22;;;;;;;;;;;23.20;58.50;;;;;;8496275;27;20336;-53
2023/07/27 09:39:26;;;;;;;;;;;23.20;58.50;;;;;;8496578;27;19960;-53
2023/07/27 09:43:27;;;;;;;;;;;23.20;58.50;;;;;;8496253;27;19915;-54
2023/07/27 09:47:31;;;;;;;;;;;23.20;58.60;;;;;;8496822;27;19918;-54
2023/07/27 09:51:31;;;;;;;;;;;23.30;58.60;;;;;;8495796;27;19957;-53
2023/07/27 09:55:32;;;;;;;;;;;23.20;58.60;;;;;;8496206;27;19919;-53
2023/07/27 09:59:33;;;;;;;;;;;23.20;58.60;;;;;;8495963;27;19919;-53
2023/07/27 10:03:33;;;;;;;;;;;23.20;58.60;;;;;;8477291;27;19915;-54
2023/07/27 10:07:34;;;;;;;;;;;23.20;58.60;;;;;;8495735;27;19950;-54
2023/07/27 10:11:54;;;;;;;;;;;23.20;58.60;;;;;;8495396;27;19918;-53
2023/07/27 10:15:55;;;;;;;;;;;23.20;58.60;;;;;;8495272;27;19945;-53
2023/07/27 10:19:56;;;;;;;;;;;23.20;58.60;;;;;;8495282;27;19947;-53
2023/07/27 10:24:01;;;;;;;;;;;23.20;58.60;;;;;;8495071;27;19912;-54
2023/07/27 10:28:02;;;;;;;;;;;23.20;58.60;;;;;;8495016;27;19907;-54
2023/07/27 10:32:06;;;;;;;;;;;23.20;58.60;;;;;;8494983;27;20027;-54
2023/07/27 10:36:07;;;;;;;;;;;23.20;58.70;;;;;;8495218;27;19908;-54
2023/07/27 10:40:08;;;;;;;;;;;23.20;58.60;;;;;;8510691;27;19922;-54
2023/07/27 10:44:10;;;;;;;;;;;23.20;58.70;;;;;;8494989;28;19965;-54
2023/07/27 10:48:16;;;;;;;;;;;23.20;58.70;;;;;;8494629;28;19907;-54
2023/07/27 10:52:20;;;;;;;;;;;23.20;58.70;;;;;;8494578;28;19907;-53
2023/07/27 10:56:21;;;;;;;;;;;23.20;58.70;;;;;;8476555;27;19907;-54
2023/07/27 11:00:21;;;;;;;;;;;23.20;58.70;;;;;;8494514;28;19915;-54
2023/07/27 11:04:22;;;;;;;;;;;23.20;58.70;;;;;;8476202;28;20555;-54
2023/07/27 11:08:26;;;;;;;;;;;23.20;58.70;;;;;;8494122;28;19970;-55
2023/07/27 11:12:27;;;;;;;;;;;23.20;58.70;;;;;;8494572;28;19915;-54
2023/07/27 11:16:28;;;;;;;;;;;23.20;58.70;;;;;;8475957;28;19919;-54
2023/07/27 11:20:32;;;;;;;;;;;23.20;58.70;;;;;;8494488;28;19955;-54
2023/07/27 11:24:33;;;;;;;;;;;23.20;58.70;;;;;;8494310;27;19911;-53
2023/07/27 11:28:34;;;;;;;;;;;23.20;58.70;;;;;;8475929;28;19912;-53
2023/07/27 11:32:34;;;;;;;;;;;23.20;58.70;;;;;;8494067;28;19907;-54
2023/07/27 11:36:35;;;;;;;;;;;23.20;58.70;;;;;;8495832;27;19908;-55
2023/07/27 11:40:36;;;;;;;;;;;23.20;58.70;;;;;;8498855;27;19919;-54
2023/07/27 11:44:36;;;;;;;;;;;23.20;58.70;;;;;;8500383;27;19980;-54
2023/07/27 11:48:37;;;;;;;;;;;23.20;58.70;;;;;;8500449;27;19912;-53
2023/07/27 11:52:41;;;;;;;;;;;23.20;58.70;;;;;;8499672;27;19911;-54
2023/07/27 11:56:48;;;;;;;;;;;23.20;58.70;;;;;;8500366;27;20353;-54
2023/07/27 12:00:50;;;;;;;;;;;23.20;58.70;;;;;;8499693;27;19920;-55
2023/07/27 12:04:50;;;;;;;;;;;23.20;58.70;;;;;;8499565;27;19959;-55
2023/07/27 12:08:51;;;;;;;;;;;23.20;58.70;;;;;;8499592;27;19911;-54
2023/07/27 12:13:01;;;;;;;;;;;23.20;59.30;;;;;;8499349;27;20288;-55
2023/07/27 12:17:08;;;;;;;;;;;23.20;58.70;;;;;;8499435;27;20434;-53
2023/07/27 12:21:09;;;;;;;;;;;23.20;58.70;;;;;;8498766;27;20451;-54
2023/07/27 12:25:10;;;;;;;;;;;23.20;58.70;;;;;;8481127;27;20253;-54
2023/07/27 12:29:11;;;;;;;;;;;23.20;58.70;;;;;;8498602;27;19956;-54
2023/07/27 12:33:11;;;;;;;;;;;23.20;59.20;;;;;;8498623;27;19953;-54
2023/07/27 12:37:12;;;;;;;;;;;23.20;58.70;;;;;;8498489;27;20426;-54
2023/07/27 12:41:13;;;;;;;;;;;23.20;58.70;;;;;;8498288;27;20389;-53
2023/07/27 12:45:14;;;;;;;;;;;23.20;58.70;;;;;;8498545;27;19915;-52
2023/07/27 12:49:14;;;;;;;;;;;23.20;58.70;;;;;;8497323;27;19961;-53
2023/07/27 12:53:15;;;;;;;;;;;23.20;58.70;;;;;;8497806;27;20284;-55
2023/07/27 12:57:16;;;;;;;;;;;23.20;58.70;;;;;;8498063;27;19923;-53
2023/07/27 13:01:16;;;;;;;;;;;23.20;58.70;;;;;;8497535;27;19973;-52
2023/07/27 13:05:17;;;;;;;;;;;23.20;58.70;;;;;;8498040;27;19911;-54
2023/07/27 13:09:17;;;;;;;;;;;23.20;58.70;;;;;;8497507;27;20429;-54
2023/07/27 13:13:18;;;;;;;;;;;23.20;58.70;;;;;;8478836;27;19919;-54
2023/07/27 13:17:18;;;;;;;;;;;23.20;58.70;;;;;;8479422;27;19998;-54
2023/07/27 13:21:19;;;;;;;;;;;23.20;58.70;;;;;;8496769;27;19915;-52
2023/07/27 13:25:19;;;;;;;;;;;23.20;58.70;;;;;;8497137;27;19915;-53
2023/07/27 13:29:20;;;;;;;;;;;23.20;58.70;;;;;;8496843;27;19919;-52
2023/07/27 13:33:21;;;;;;;;;;;23.30;58.70;;;;;;8496523;27;19911;-53
2023/07/27 13:37:21;;;;;;;;;;;23.20;58.70;;;;;;8496995;27;20378;-53
2023/07/27 13:41:22;;;;;;;;;;;23.20;58.70;;;;;;8496747;27;19915;-53
2023/07/27 13:45:22;;;;;;;;;;;23.20;58.70;;;;;;8497012;27;19911;-51
2023/07/27 13:49:23;;;;;;;;;;;23.30;58.70;;;;;;8496513;27;19907;-53
2023/07/27 13:53:23;;;;;;;;;;;23.30;58.70;;;;;;8496345;27;20319;-51
2023/07/27 13:57:24;;;;;;;;;;;23.20;58.70;;;;;;8496125;27;20536;-53
2023/07/27 14:01:25;;;;;;;;;;;23.20;58.70;;;;;;8495689;27;20010;-53
2023/07/27 14:05:25;;;;;;;;;;;23.20;58.70;;;;;;8495288;27;19911;-53
2023/07/27 14:09:29;;;;;;;;;;;23.20;58.60;;;;;;8495646;27;19951;-54
2023/07/27 14:13:30;;;;;;;;;;;23.20;58.70;;;;;;8495343;27;20010;-53
2023/07/27 14:17:31;;;;;;;;;;;23.30;58.70;;;;;;8495367;27;20379;-54
2023/07/27 14:21:31;;;;;;;;;;;23.30;58.70;;;;;;8495427;27;19916;-54
2023/07/27 14:25:33;;;;;;;;;;;23.30;58.70;;;;;;8493915;27;20326;-54
2023/07/27 14:29:33;;;;;;;;;;;23.30;58.70;;;;;;8495337;27;20559;-54
2023/07/27 14:33:34;;;;;;;;;;;23.20;58.70;;;;;;8495236;27;20501;-53
2023/07/27 14:37:34;;;;;;;;;;;23.20;58.70;;;;;;8494901;27;19914;-53
2023/07/27 14:41:35;;;;;;;;;;;23.20;58.60;;;;;;8494932;27;20361;-53
2023/07/27 14:45:37;;;;;;;;;;;23.20;58.70;;;;;;8494853;28;19923;-54
2023/07/27 14:49:38;;;;;;;;;;;23.20;58.60;;;;;;8494908;28;19930;-53
2023/07/27 14:53:38;;;;;;;;;;;23.30;58.70;;;;;;8494642;28;19937;-53
2023/07/27 14:57:39;;;;;;;;;;;23.20;58.70;;;;;;8495536;27;19964;-54
2023/07/27 15:01:39;;;;;;;;;;;23.20;58.70;;;;;;8510494;27;19916;-53
2023/07/27 15:05:40;;;;;;;;;;;23.30;58.70;;;;;;8494701;28;19979;-54
2023/07/27 15:09:40;;;;;;;;;;;23.30;58.70;;;;;;8494236;28;19907;-53
2023/07/27 15:13:41;;;;;;;;;;;23.20;58.60;;;;;;8499858;27;20352;-54
2023/07/27 15:17:41;;;;;;;;;;;23.30;58.70;;;;;;8501098;27;19911;-54
2023/07/27 15:21:42;;;;;;;;;;;23.30;58.70;;;;;;8500976;27;19915;-54
2023/07/27 15:25:42;;;;;;;;;;;23.30;58.70;;;;;;8501354;27;19912;-53
2023/07/27 15:29:56;;;;;;;;;;;23.20;58.60;;;;;;8482451;27;19919;-53
2023/07/27 15:33:56;;;;;;;;;;;23.30;58.70;;;;;;8500551;27;20006;-54
2023/07/27 15:37:57;;;;;;;;;;;23.20;58.70;;;;;;8516474;27;19911;-54
2023/07/27 15:41:57;;;;;;;;;;;23.20;58.70;;;;;;8482067;27;20315;-54
2023/07/27 15:46:00;;;;;;;;;;;23.30;58.80;;;;;;8501220;27;19919;-53
2023/07/27 15:50:00;;;;;;;;;;;23.20;58.80;;;;;;8500161;27;20321;-54
2023/07/27 15:54:01;;;;;;;;;;;23.20;58.80;;;;;;8499979;27;19912;-54
2023/07/27 15:58:03;;;;;;;;;;;23.30;58.80;;;;;;8500240;27;19928;-53
2023/07/27 16:02:04;;;;;;;;;;;23.20;58.70;;;;;;8481288;27;19912;-54
2023/07/27 16:06:06;;;;;;;;;;;23.30;58.80;;;;;;8481511;27;20276;-54
2023/07/27 16:10:06;;;;;;;;;;;23.30;58.80;;;;;;8499400;27;19907;-54
2023/07/27 16:14:07;;;;;;;;;;;23.20;58.70;;;;;;8499255;27;19936;-54
2023/07/27 16:18:07;;;;;;;;;;;23.30;58.80;;;;;;8499426;27;20595;-54
2023/07/27 16:22:08;;;;;;;;;;;23.20;58.70;;;;;;8498604;27;19941;-53
2023/07/27 16:26:09;;;;;;;;;;;23.20;58.70;;;;;;8498872;27;20292;-54
2023/07/27 16:30:10;;;;;;;;;;;23.20;58.70;;;;;;8498669;27;19998;-54
2023/07/27 16:34:10;;;;;;;;;;;23.30;58.80;;;;;;8498885;27;19919;-54
2023/07/27 16:38:11;;;;;;;;;;;23.20;58.80;;;;;;8498576;27;19912;-53
2023/07/27 16:42:11;;;;;;;;;;;23.20;58.80;;;;;;8498458;27;19920;-54
2023/07/27 16:46:12;;;;;;;;;;;23.20;58.80;;;;;;8497134;27;19911;-55
2023/07/27 16:50:13;;;;;;;;;;;23.30;58.80;;;;;;8498312;27;20348;-55
2023/07/27 16:54:13;;;;;;;;;;;23.20;58.80;;;;;;8497952;27;19914;-54
2023/07/27 16:58:13;;;;;;;;;;;23.20;58.80;;;;;;8498520;27;20381;-54
2023/07/27 17:02:14;;;;;;;;;;;23.20;58.80;;;;;;8479746;27;20447;-54
2023/07/27 17:06:16;;;;;;;;;;;23.30;58.90;;;;;;8498013;27;19938;-54
2023/07/27 17:10:16;;;;;;;;;;;23.20;58.80;;;;;;8497995;27;19911;-54
2023/07/27 17:14:17;;;;;;;;;;;23.20;58.80;;;;;;8497078;27;19923;-54
2023/07/27 17:18:17;;;;;;;;;;;23.30;58.90;;;;;;8498078;27;19912;-54
2023/07/27 17:22:18;;;;;;;;;;;23.20;58.80;;;;;;8496729;27;20018;-53
2023/07/27 17:26:19;;;;;;;;;;;23.20;58.80;;;;;;8497558;27;20360;-54
2023/07/27 17:30:19;;;;;;;;;;;23.20;58.80;;;;;;8497224;27;20360;-53
2023/07/27 17:34:20;;;;;;;;;;;23.20;58.90;;;;;;8496899;27;20288;-53
2023/07/27 17:38:23;;;;;;;;;;;23.30;58.90;;;;;;8496554;27;19943;-54
2023/07/27 17:42:24;;;;;;;;;;;23.30;58.90;;;;;;8478017;27;19943;-54
2023/07/27 17:46:24;;;;;;;;;;;23.20;58.80;;;;;;8496340;27;19911;-53
2023/07/27 17:50:25;;;;;;;;;;;23.30;58.90;;;;;;8495946;27;20348;-54
2023/07/27 17:54:26;;;;;;;;;;;23.20;58.80;;;;;;8496372;27;19932;-54
2023/07/27 17:58:26;;;;;;;;;;;23.30;58.90;;;;;;8496105;27;20400;-54
2023/07/27 18:02:27;;;;;;;;;;;23.20;58.80;;;;;;8495734;27;19926;-54
2023/07/27 18:06:27;;;;;;;;;;;23.30;58.90;;;;;;8496446;27;20002;-53
2023/07/27 18:10:28;;;;;;;;;;;23.30;58.90;;;;;;8495689;27;19934;-53
2023/07/27 18:14:28;;;;;;;;;;;23.20;58.90;;;;;;8476679;27;19923;-53
2023/07/27 18:18:29;;;;;;;;;;;23.20;58.90;;;;;;8495571;27;19956;-54
2023/07/27 18:22:32;;;;;;;;;;;23.20;58.90;;;;;;8495239;27;19916;-54
2023/07/27 18:26:32;;;;;;;;;;;23.20;58.90;;;;;;8477016;27;19912;-54
2023/07/27 18:30:34;;;;;;;;;;;23.20;58.90;;;;;;8494951;27;20006;-53
2023/07/27 18:34:35;;;;;;;;;;;23.20;58.90;;;;;;8494932;27;19915;-53
2023/07/27 18:38:36;;;;;;;;;;;23.30;59.00;;;;;;8494966;27;19911;-54
2023/07/27 18:42:36;;;;;;;;;;;23.30;58.90;;;;;;8493524;27;19974;-54
2023/07/27 18:46:37;;;;;;;;;;;23.30;58.90;;;;;;8494332;27;20620;-52
2023/07/27 18:50:37;;;;;;;;;;;23.20;58.90;;;;;;8510622;27;19911;-54
2023/07/27 18:54:40;;;;;;;;;;;23.20;58.90;;;;;;8496972;27;19994;-52
2023/07/27 18:58:40;;;;;;;;;;;23.20;58.90;;;;;;8510405;27;19911;-55
2023/07/27 19:02:41;;;;;;;;;;;23.20;58.90;;;;;;8528694;27;19915;-53
2023/07/27 19:06:41;;;;;;;;;;;23.20;58.90;;;;;;8528723;27;19911;-54
2023/07/27 19:10:42;;;;;;;;;;;23.20;58.90;;;;;;8526114;27;19911;-54
2023/07/27 19:14:42;;;;;;;;;;;23.20;59.50;;;;;;8511481;27;19927;-52
2023/07/27 19:18:43;;;;;;;;;;;23.30;59.20;;;;;;8522380;27;19949;-49
2023/07/27 19:22:43;;;;;;;;;;;23.30;59.60;;;;;;8522343;27;19922;-49
2023/07/27 19:26:44;;;;;;;;;;;23.30;60.00;;;;;;8520930;27;20248;-50
2023/07/27 19:30:45;;;;;;;;;;;23.30;59.70;;;;;;8523511;27;19919;-47
2023/07/27 19:34:46;;;;;;;;;;;23.30;59.30;;;;;;8523274;27;19908;-48
2023/07/27 19:38:47;;;;;;;;;;;23.30;59.20;;;;;;8522952;27;19915;-47
2023/07/27 19:42:47;;;;;;;;;;;23.40;59.20;;;;;;8522117;27;19922;-48
2023/07/27 19:46:49;;;;;;;;;;;23.40;59.10;;;;;;8522291;27;20371;-49
2023/07/27 19:50:52;;;;;;;;;;;23.40;59.10;;;;;;8521842;27;19915;-48
2023/07/27 19:54:53;;;;;;;;;;;23.40;59.20;;;;;;8522205;27;19926;-49
2023/07/27 19:58:53;;;;;;;;;;;23.40;59.20;;;;;;8525796;27;19918;-48
2023/07/27 20:02:54;;;;;;;;;;;23.40;59.20;;;;;;8528167;27;20337;-52
2023/07/27 20:06:54;;;;;;;;;;;23.40;59.20;;;;;;8528047;27;19926;-49
2023/07/27 20:10:55;;;;;;;;;;;23.40;59.30;;;;;;8528014;27;19919;-48
2023/07/27 20:14:55;;;;;;;;;;;23.40;59.30;;;;;;8537382;27;19930;-48
2023/07/27 20:18:56;;;;;;;;;;;23.40;59.30;;;;;;8540897;27;20419;-47
2023/07/27 20:22:56;;;;;;;;;;;23.40;59.30;;;;;;8544661;27;19922;-52
2023/07/27 20:26:57;;;;;;;;;;;23.40;59.40;;;;;;8544384;27;19911;-52
2023/07/27 20:30:57;;;;;;;;;;;23.40;59.40;;;;;;8545069;27;20256;-51
2023/07/27 20:34:58;;;;;;;;;;;23.50;59.40;;;;;;8545086;27;19918;-49
2023/07/27 20:38:58;;;;;;;;;;;23.50;59.50;;;;;;8545158;27;19919;-50
2023/07/27 20:42:59;;;;;;;;;;;23.50;59.60;;;;;;8544789;27;19961;-49
2023/07/27 20:46:59;;;;;;;;;;;23.50;59.60;;;;;;8544671;27;20438;-49
2023/07/27 20:51:06;;;;;;;;;;;23.50;60.00;;;;;;8544422;27;19914;-48
2023/07/27 20:55:07;;;;;;;;;;;23.40;59.60;;;;;;8542596;27;19983;-53
2023/07/27 20:59:08;;;;;;;;;;;23.50;59.60;;;;;;8523617;27;19918;-49
2023/07/27 21:03:08;;;;;;;;;;;23.50;59.60;;;;;;8542891;27;19949;-48
2023/07/27 21:07:09;;;;;;;;;;;23.50;59.70;;;;;;8518126;27;19911;-48
2023/07/27 21:11:09;;;;;;;;;;;23.50;60.10;;;;;;8542305;27;20699;-50
2023/07/27 21:15:10;;;;;;;;;;;23.50;59.60;;;;;;8521335;27;19938;-48
2023/07/27 21:19:10;;;;;;;;;;;23.50;59.70;;;;;;8508868;27;19915;-50
2023/07/27 21:23:11;;;;;;;;;;;23.50;59.70;;;;;;8508083;27;19930;-48
2023/07/27 21:27:11;;;;;;;;;;;23.50;59.90;;;;;;8508695;27;19963;-50
2023/07/27 21:31:12;;;;;;;;;;;23.50;60.00;;;;;;8508067;27;19919;-51
2023/07/27 21:35:13;;;;;;;;;;;23.50;59.80;;;;;;8507971;27;20448;-49
2023/07/27 21:39:16;;;;;;;;;;;23.50;62.80;;;;;;8506974;27;21377;-48
2023/07/27 21:43:19;;;;;;;;;;;23.50;65.00;;;;;;8507508;27;19924;-49
2023/07/27 21:47:19;;;;;;;;;;;23.50;64.40;;;;;;8508153;27;19918;-56
2023/07/27 21:51:20;;;;;;;;;;;23.50;63.70;;;;;;8507129;27;19919;-51
2023/07/27 21:55:21;;;;;;;;;;;23.50;63.50;;;;;;8507612;27;20384;-58
2023/07/27 21:59:21;;;;;;;;;;;23.50;63.10;;;;;;8507279;27;19980;-56
2023/07/27 22:03:22;;;;;;;;;;;23.50;62.60;;;;;;8507497;27;19923;-55
2023/07/27 22:07:22;;;;;;;;;;;23.50;61.90;;;;;;8488505;27;19919;-56
2023/07/27 22:11:23;;;;;;;;;;;23.50;61.50;;;;;;8506808;27;20028;-55
2023/07/27 22:15:24;;;;;;;;;;;23.50;61.10;;;;;;8506349;27;19919;-56
2023/07/27 22:19:24;;;;;;;;;;;23.50;61.30;;;;;;8507194;27;19916;-50
2023/07/27 22:23:25;;;;;;;;;;;23.50;61.30;;;;;;8505561;27;19931;-56
2023/07/27 22:27:26;;;;;;;;;;;23.50;61.40;;;;;;8506361;27;19971;-56
2023/07/27 22:31:26;;;;;;;;;;;23.50;61.20;;;;;;8506610;27;19916;-52
2023/07/27 22:35:28;;;;;;;;;;;23.50;61.40;;;;;;8505945;27;19960;-55
2023/07/27 22:39:29;;;;;;;;;;;23.50;61.20;;;;;;8487978;27;19919;-52
2023/07/27 22:43:30;;;;;;;;;;;23.50;61.00;;;;;;8506839;27;20448;-53
2023/07/27 22:47:30;;;;;;;;;;;23.50;61.20;;;;;;8506427;27;20543;-54
2023/07/27 22:51:31;;;;;;;;;;;23.50;61.00;;;;;;8505588;27;19919;-56
2023/07/27 22:55:31;;;;;;;;;;;23.50;61.60;;;;;;8505450;27;20280;-56
2023/07/27 22:59:32;;;;;;;;;;;23.50;61.10;;;;;;8499328;27;19911;-54
2023/07/27 23:03:32;;;;;;;;;;;23.50;60.80;;;;;;8494718;28;19922;-54
2023/07/27 23:07:33;;;;;;;;;;;23.50;60.70;;;;;;8494738;28;19911;-56
2023/07/27 23:11:33;;;;;;;;;;;23.50;60.70;;;;;;8494692;28;19916;-53
2023/07/27 23:15:34;;;;;;;;;;;23.50;60.70;;;;;;8519107;27;20049;-53
2023/07/27 23:19:35;;;;;;;;;;;23.50;60.20;;;;;;8529108;27;19977;-55
2023/07/27 23:23:35;;;;;;;;;;;23.50;60.10;;;;;;8529521;27;19918;-54